Time;durP1;ratioP1;P1;durP2;ratioP2;P2;SDS_P1;SDS_P2;PMS_P1;PMS_P2;Temp;Humidity;BMP_temperature;BMP_pressure;BME280_temperature;BME280_humidity;BME280_pressure;Samples;Min_cycle;Max_cycle;Signal;HPM_P1;HPM_P2
2022/07/10 00:01:08;;;;;;;3.70;1.00;;;14.50;99.90;;;;;;5045462;28;20057;-67
2022/07/10 00:03:34;;;;;;;10.48;1.30;;;14.60;99.90;;;;;;5044489;28;20458;-67
2022/07/10 00:05:59;;;;;;;9.60;1.20;;;14.60;99.90;;;;;;5044017;28;20040;-69
2022/07/10 00:08:25;;;;;;;7.22;1.00;;;14.60;99.90;;;;;;5058751;28;20052;-67
2022/07/10 00:10:51;;;;;;;9.20;1.20;;;14.60;99.90;;;;;;5056027;28;20045;-69
2022/07/10 00:13:17;;;;;;;8.50;1.10;;;14.60;99.90;;;;;;5035972;28;20402;-68
2022/07/10 00:15:42;;;;;;;8.70;1.23;;;14.60;99.90;;;;;;5052051;28;20075;-70
2022/07/10 00:18:08;;;;;;;6.13;1.00;;;14.60;99.90;;;;;;5060712;28;20040;-68
2022/07/10 00:20:35;;;;;;;6.30;0.88;;;14.60;99.90;;;;;;5046936;28;20044;-67
2022/07/10 00:23:01;;;;;;;5.80;1.08;;;14.70;99.90;;;;;;5024638;28;20064;-69
2022/07/10 00:25:27;;;;;;;7.88;0.98;;;14.60;99.90;;;;;;5048596;28;20409;-67
2022/07/10 00:27:52;;;;;;;6.55;1.13;;;14.60;99.90;;;;;;5043705;28;20115;-68
2022/07/10 00:30:18;;;;;;;8.95;1.25;;;14.70;99.90;;;;;;5042069;28;20044;-70
2022/07/10 00:32:44;;;;;;;7.15;0.88;;;14.70;99.90;;;;;;5046723;28;20098;-68
2022/07/10 00:35:09;;;;;;;5.32;1.20;;;14.60;99.90;;;;;;5060988;28;20052;-69
2022/07/10 00:37:36;;;;;;;6.72;1.20;;;14.60;99.90;;;;;;5022730;28;20051;-69
2022/07/10 00:40:04;;;;;;;5.85;1.10;;;14.70;99.90;;;;;;5051878;28;20223;-68
2022/07/10 00:42:30;;;;;;;8.77;1.15;;;14.60;99.90;;;;;;5057705;28;20044;-70
2022/07/10 00:44:56;;;;;;;8.43;1.20;;;14.60;99.90;;;;;;5064232;28;20049;-68
2022/07/10 00:47:22;;;;;;;5.85;1.10;;;14.60;99.90;;;;;;5055276;28;20079;-68
2022/07/10 00:49:48;;;;;;;14.65;1.52;;;14.60;99.90;;;;;;5061758;28;20382;-70
2022/07/10 00:52:15;;;;;;;4.85;1.00;;;14.50;99.90;;;;;;5037411;28;20480;-67
2022/07/10 00:54:44;;;;;;;10.43;1.00;;;14.50;99.90;;;;;;5033432;28;20049;-68
2022/07/10 00:57:11;;;;;;;8.30;1.33;;;14.40;99.90;;;;;;5055291;28;20064;-67
2022/07/10 00:59:37;;;;;;;8.02;1.20;;;14.40;99.90;;;;;;5058028;28;20053;-67
2022/07/10 01:02:04;;;;;;;5.03;1.20;;;14.30;99.90;;;;;;5022049;28;20052;-68
2022/07/10 01:04:31;;;;;;;5.22;1.38;;;14.30;99.90;;;;;;5049497;28;20036;-67
2022/07/10 01:06:57;;;;;;;7.93;1.45;;;14.20;99.90;;;;;;5054589;28;20045;-67
2022/07/10 01:09:23;;;;;;;8.40;1.20;;;14.10;99.90;;;;;;5046848;28;20059;-68
2022/07/10 01:11:48;;;;;;;6.82;1.15;;;14.10;99.90;;;;;;5054524;28;20488;-69
2022/07/10 01:14:15;;;;;;;8.02;1.50;;;14.10;99.90;;;;;;5050880;28;20036;-72
2022/07/10 01:16:41;;;;;;;11.40;1.70;;;14.10;99.90;;;;;;5025669;28;20037;-67
2022/07/10 01:19:07;;;;;;;6.13;1.30;;;14.10;99.90;;;;;;5062026;28;20047;-68
2022/07/10 01:21:34;;;;;;;7.10;1.33;;;14.10;99.90;;;;;;5058777;28;20110;-68
2022/07/10 01:24:04;;;;;;;7.18;1.15;;;14.10;99.90;;;;;;5057197;28;20051;-69
2022/07/10 01:26:30;;;;;;;5.85;1.30;;;14.10;99.90;;;;;;5055429;28;20056;-68
2022/07/10 01:28:58;;;;;;;8.35;1.30;;;14.10;99.90;;;;;;5054909;28;20552;-68
2022/07/10 01:31:27;;;;;;;9.02;1.75;;;14.10;99.90;;;;;;5058012;28;20052;-67
2022/07/10 01:33:54;;;;;;;6.05;1.25;;;14.20;99.90;;;;;;5059839;28;20041;-70
2022/07/10 01:36:21;;;;;;;6.45;1.98;;;14.20;99.90;;;;;;5045495;28;20040;-68
2022/07/10 01:38:48;;;;;;;5.57;1.38;;;14.20;99.90;;;;;;5046288;28;20474;-68
2022/07/10 01:41:13;;;;;;;8.27;1.35;;;14.20;99.90;;;;;;5043315;28;20578;-68
2022/07/10 01:43:44;;;;;;;5.47;1.10;;;14.20;99.90;;;;;;5053442;28;20110;-67
2022/07/10 01:46:11;;;;;;;6.85;1.00;;;14.20;99.90;;;;;;5045425;28;20083;-68
2022/07/10 01:48:38;;;;;;;9.57;1.40;;;14.20;99.90;;;;;;5026449;28;20052;-68
2022/07/10 01:51:05;;;;;;;8.05;1.50;;;14.20;99.90;;;;;;5049452;28;20123;-67
2022/07/10 01:53:30;;;;;;;5.60;1.23;;;14.20;99.90;;;;;;5048844;28;20056;-67
2022/07/10 01:55:57;;;;;;;6.75;1.40;;;14.10;99.90;;;;;;5042020;28;20505;-67
2022/07/10 01:58:23;;;;;;;6.68;1.00;;;14.10;99.90;;;;;;5033674;28;20045;-69
2022/07/10 02:00:48;;;;;;;4.53;1.15;;;14.10;99.90;;;;;;5048174;28;20056;-67
2022/07/10 02:05:58;;;;;;;9.18;1.33;;;14.10;99.90;;;;;;5054447;28;20060;-67
2022/07/10 02:08:24;;;;;;;8.05;1.23;;;14.10;99.90;;;;;;5055680;28;20057;-67
2022/07/10 02:10:50;;;;;;;6.05;1.30;;;14.10;99.90;;;;;;5086425;28;20048;-67
2022/07/10 02:13:19;;;;;;;5.18;1.20;;;14.10;99.90;;;;;;5075922;28;20044;-68
2022/07/10 02:15:48;;;;;;;5.88;1.20;;;14.10;99.90;;;;;;5057277;28;20049;-68
2022/07/10 02:18:14;;;;;;;8.00;1.48;;;14.10;99.90;;;;;;5032276;28;20056;-67
2022/07/10 02:20:40;;;;;;;4.63;0.80;;;14.20;99.90;;;;;;5087222;28;20455;-67
2022/07/10 02:23:06;;;;;;;11.73;1.60;;;14.10;99.90;;;;;;5048123;28;20505;-68
2022/07/10 02:25:33;;;;;;;10.40;1.63;;;14.10;99.90;;;;;;5053649;28;20091;-69
2022/07/10 02:27:59;;;;;;;9.77;1.58;;;14.10;99.90;;;;;;5079922;28;20056;-67
2022/07/10 02:30:25;;;;;;;7.25;1.58;;;14.10;99.90;;;;;;5033726;28;20053;-67
2022/07/10 02:32:51;;;;;;;8.18;1.48;;;14.20;99.90;;;;;;5067094;28;20103;-68
2022/07/10 02:35:16;;;;;;;5.90;1.25;;;14.20;99.90;;;;;;5068252;28;20045;-67
2022/07/10 02:37:42;;;;;;;7.45;1.50;;;14.20;99.90;;;;;;5049489;28;20510;-68
2022/07/10 02:40:08;;;;;;;6.93;1.50;;;14.20;99.90;;;;;;5051856;28;20055;-68
2022/07/10 02:42:34;;;;;;;10.55;1.42;;;14.20;99.90;;;;;;5033531;28;20442;-67
2022/07/10 02:45:00;;;;;;;9.88;1.45;;;14.20;99.90;;;;;;5050677;28;20393;-68
2022/07/10 02:47:26;;;;;;;10.65;1.60;;;14.20;99.90;;;;;;5055509;28;20048;-67
2022/07/10 02:49:51;;;;;;;7.00;1.40;;;14.10;99.90;;;;;;5036670;28;20384;-68
2022/07/10 02:52:17;;;;;;;5.80;1.35;;;14.10;99.90;;;;;;5068276;28;20106;-67
2022/07/10 02:54:43;;;;;;;7.82;1.42;;;14.00;99.90;;;;;;5065535;28;20393;-68
2022/07/10 02:57:08;;;;;;;6.68;1.30;;;14.00;99.90;;;;;;5070051;28;20097;-70
2022/07/10 02:59:34;;;;;;;13.57;1.67;;;14.00;99.90;;;;;;5053773;28;20048;-68
2022/07/10 03:02:00;;;;;;;7.82;1.63;;;13.90;99.90;;;;;;5077065;28;20189;-67
2022/07/10 03:04:26;;;;;;;8.80;1.33;;;13.90;99.90;;;;;;5055194;28;20048;-68
2022/07/10 03:06:52;;;;;;;6.97;1.48;;;13.90;99.90;;;;;;5067407;28;20477;-68
2022/07/10 03:09:18;;;;;;;4.90;1.60;;;13.80;99.90;;;;;;5054626;28;20045;-72
2022/07/10 03:11:44;;;;;;;6.18;1.52;;;13.80;99.90;;;;;;5048964;28;20044;-67
2022/07/10 03:14:09;;;;;;;7.22;1.52;;;13.80;99.90;;;;;;5050751;28;20489;-72
2022/07/10 03:16:35;;;;;;;7.13;1.50;;;13.70;99.90;;;;;;5037696;28;20060;-71
2022/07/10 03:19:01;;;;;;;6.85;1.05;;;13.60;99.90;;;;;;5087748;28;20048;-67
2022/07/10 03:21:26;;;;;;;6.93;1.50;;;13.60;99.90;;;;;;5043338;28;20049;-67
2022/07/10 03:23:52;;;;;;;3.13;1.20;;;13.50;99.90;;;;;;5055400;28;20052;-70
2022/07/10 03:26:18;;;;;;;7.30;1.30;;;13.50;99.90;;;;;;5056972;28;20049;-67
2022/07/10 03:28:43;;;;;;;8.55;1.48;;;13.40;99.90;;;;;;5052209;28;20037;-67
2022/07/10 03:31:09;;;;;;;7.35;1.50;;;13.40;99.90;;;;;;5037215;28;20051;-67
2022/07/10 03:33:35;;;;;;;7.00;1.63;;;13.40;99.90;;;;;;5057092;28;20076;-68
2022/07/10 03:36:03;;;;;;;10.43;1.52;;;13.40;99.90;;;;;;5060556;28;20473;-72
2022/07/10 03:38:29;;;;;;;9.23;1.75;;;13.30;99.90;;;;;;5035784;28;20458;-68
2022/07/10 03:40:55;;;;;;;8.13;1.50;;;13.40;99.90;;;;;;5047923;28;20080;-67
2022/07/10 03:43:20;;;;;;;9.73;1.77;;;13.40;99.90;;;;;;5060899;28;20046;-67
2022/07/10 03:45:46;;;;;;;6.55;1.35;;;13.40;99.90;;;;;;5053005;28;20128;-68
2022/07/10 03:48:12;;;;;;;4.75;1.30;;;13.40;99.90;;;;;;5052110;28;20047;-67
2022/07/10 03:50:37;;;;;;;7.72;1.35;;;13.40;99.90;;;;;;5042700;28;20401;-68
2022/07/10 03:53:03;;;;;;;8.65;1.75;;;13.40;99.90;;;;;;5071906;28;20090;-67
2022/07/10 03:55:29;;;;;;;5.47;1.30;;;13.40;99.90;;;;;;5067189;28;20132;-67
2022/07/10 03:57:55;;;;;;;9.57;1.30;;;13.40;99.90;;;;;;5068794;28;20055;-70
2022/07/10 04:00:26;;;;;;;5.82;1.33;;;13.50;99.90;;;;;;5036347;28;20051;-68
2022/07/10 04:02:56;;;;;;;7.18;1.40;;;13.50;99.90;;;;;;5054129;28;20083;-67
2022/07/10 04:05:22;;;;;;;7.13;1.45;;;13.50;99.90;;;;;;5044818;28;20405;-68
2022/07/10 04:07:51;;;;;;;8.88;1.30;;;13.50;99.90;;;;;;5076226;28;20045;-68
2022/07/10 04:10:16;;;;;;;8.02;1.52;;;13.50;99.90;;;;;;5052808;28;20397;-68
2022/07/10 04:12:43;;;;;;;6.95;1.23;;;13.50;99.90;;;;;;5052420;28;20044;-71
2022/07/10 04:15:09;;;;;;;10.02;1.52;;;13.60;99.90;;;;;;5046652;28;20060;-68
2022/07/10 04:17:34;;;;;;;10.27;1.58;;;13.60;99.90;;;;;;5069582;28;20400;-67
2022/07/10 04:20:00;;;;;;;8.43;1.73;;;13.60;99.90;;;;;;5054264;28;20087;-67
2022/07/10 04:22:27;;;;;;;6.78;1.55;;;13.70;99.90;;;;;;5054020;28;20055;-67
2022/07/10 04:24:56;;;;;;;6.32;1.50;;;13.80;99.90;;;;;;5053060;28;20056;-69
2022/07/10 04:27:22;;;;;;;7.88;1.35;;;13.80;99.90;;;;;;5038834;28;20130;-70
2022/07/10 04:29:48;;;;;;;7.05;1.55;;;13.90;99.90;;;;;;5052459;28;20094;-67
2022/07/10 04:32:15;;;;;;;7.43;1.60;;;14.00;99.90;;;;;;5070251;28;20136;-67
2022/07/10 04:34:41;;;;;;;8.68;1.38;;;14.00;99.90;;;;;;5040610;28;20041;-70
2022/07/10 04:37:09;;;;;;;3.78;1.23;;;14.10;99.90;;;;;;5050835;28;20060;-68
2022/07/10 04:39:37;;;;;;;7.20;1.38;;;14.20;99.90;;;;;;5053623;28;20045;-70
2022/07/10 04:42:04;;;;;;;9.40;1.58;;;14.30;99.90;;;;;;5071239;28;20401;-69
2022/07/10 04:44:30;;;;;;;7.93;1.92;;;14.50;99.90;;;;;;5040028;28;20049;-67
2022/07/10 04:46:56;;;;;;;9.20;1.35;;;14.60;99.90;;;;;;5083073;28;20056;-70
2022/07/10 04:49:21;;;;;;;9.93;1.70;;;14.80;99.90;;;;;;5048495;28;20049;-68
2022/07/10 04:51:47;;;;;;;10.05;1.35;;;14.90;99.90;;;;;;5060993;28;20174;-68
2022/07/10 04:54:13;;;;;;;8.00;1.50;;;15.10;99.90;;;;;;5075154;28;20102;-67
2022/07/10 04:56:38;;;;;;;9.48;1.55;;;15.30;99.90;;;;;;5052700;28;20135;-67
2022/07/10 04:59:04;;;;;;;6.70;1.02;;;15.40;99.90;;;;;;5058438;28;20044;-68
2022/07/10 05:01:30;;;;;;;9.15;1.38;;;15.40;99.90;;;;;;5058281;28;20053;-68
2022/07/10 05:03:56;;;;;;;11.88;1.55;;;15.50;99.90;;;;;;5072219;28;20056;-68
2022/07/10 05:06:21;;;;;;;8.98;1.50;;;15.50;99.90;;;;;;5054122;28;20044;-67
2022/07/10 05:08:47;;;;;;;10.02;1.30;;;15.50;99.90;;;;;;5033200;28;20132;-67
2022/07/10 05:11:13;;;;;;;7.18;1.33;;;15.60;99.90;;;;;;5054938;28;20111;-67
2022/07/10 05:13:39;;;;;;;8.73;1.65;;;15.70;99.90;;;;;;5039468;28;20057;-68
2022/07/10 05:16:05;;;;;;;11.50;1.55;;;15.70;99.90;;;;;;5017641;28;20839;-68
2022/07/10 05:18:31;;;;;;;5.07;1.20;;;15.80;99.90;;;;;;5053736;28;20048;-68
2022/07/10 05:21:00;;;;;;;10.00;1.30;;;15.80;99.90;;;;;;5056846;28;20102;-68
2022/07/10 05:23:25;;;;;;;8.85;1.52;;;15.70;99.90;;;;;;5051104;28;20440;-67
2022/07/10 05:25:51;;;;;;;8.98;1.40;;;15.70;99.90;;;;;;5047120;28;20506;-68
2022/07/10 05:28:17;;;;;;;8.68;1.52;;;15.70;99.90;;;;;;5066063;28;20041;-68
2022/07/10 05:30:42;;;;;;;8.45;1.42;;;15.60;99.90;;;;;;5050941;28;20037;-68
2022/07/10 05:33:08;;;;;;;7.07;1.40;;;15.60;99.90;;;;;;5078375;28;20041;-68
2022/07/10 05:35:34;;;;;;;8.15;1.45;;;15.60;99.90;;;;;;5062797;28;20068;-67
2022/07/10 05:38:00;;;;;;;6.45;1.55;;;15.60;99.90;;;;;;5049385;28;20052;-68
2022/07/10 05:40:26;;;;;;;9.65;1.42;;;15.60;99.90;;;;;;5049048;28;20083;-69
2022/07/10 05:42:52;;;;;;;7.38;1.60;;;15.70;99.90;;;;;;5049301;28;20095;-67
2022/07/10 05:45:18;;;;;;;7.18;1.50;;;15.70;99.90;;;;;;5040837;28;20509;-68
2022/07/10 05:47:44;;;;;;;8.45;1.70;;;15.70;99.90;;;;;;5065631;28;20428;-68
2022/07/10 05:50:11;;;;;;;7.82;1.55;;;15.70;99.90;;;;;;5033409;28;21213;-68
2022/07/10 05:52:37;;;;;;;7.55;1.65;;;15.70;99.90;;;;;;5050111;28;20048;-67
2022/07/10 05:55:04;;;;;;;6.55;1.40;;;15.70;99.90;;;;;;5037280;28;20493;-68
2022/07/10 05:57:35;;;;;;;9.25;1.60;;;15.70;99.90;;;;;;5031515;28;20596;-67
2022/07/10 06:00:04;;;;;;;10.32;1.42;;;15.70;99.90;;;;;;5045472;28;20409;-68
2022/07/10 06:02:30;;;;;;;5.28;1.60;;;15.80;99.90;;;;;;5069478;28;20052;-68
2022/07/10 06:04:56;;;;;;;8.27;1.48;;;15.70;99.90;;;;;;5063896;28;20051;-67
2022/07/10 06:07:22;;;;;;;4.88;1.80;;;15.80;99.90;;;;;;5059732;28;20041;-67
2022/07/10 06:09:47;;;;;;;10.13;1.63;;;15.90;99.90;;;;;;5070539;28;20045;-67
2022/07/10 06:12:15;;;;;;;5.50;1.40;;;15.90;99.90;;;;;;5050166;28;20057;-67
2022/07/10 06:14:41;;;;;;;10.30;1.13;;;15.90;99.90;;;;;;5035541;28;20111;-67
2022/07/10 06:17:07;;;;;;;8.75;1.67;;;15.90;99.90;;;;;;5050020;28;20095;-67
2022/07/10 06:19:33;;;;;;;8.75;1.65;;;15.90;99.90;;;;;;5032392;28;20127;-67
2022/07/10 06:24:44;;;;;;;7.13;1.45;;;15.80;99.90;;;;;;5041702;28;20056;-67
2022/07/10 06:27:11;;;;;;;6.90;1.73;;;15.80;99.90;;;;;;5042903;28;20396;-67
2022/07/10 06:29:36;;;;;;;6.93;1.35;;;15.90;99.90;;;;;;5068033;28;20095;-68
2022/07/10 06:32:02;;;;;;;8.02;1.50;;;15.90;99.90;;;;;;5032361;28;20048;-67
2022/07/10 06:34:28;;;;;;;4.82;1.65;;;16.00;99.90;;;;;;5063389;28;20043;-67
2022/07/10 06:36:54;;;;;;;8.05;1.20;;;15.90;99.90;;;;;;5043212;28;20052;-68
2022/07/10 06:39:20;;;;;;;6.25;1.40;;;15.90;99.90;;;;;;5058923;28;20045;-70
2022/07/10 06:41:46;;;;;;;9.57;1.40;;;16.00;99.90;;;;;;5037245;28;20048;-69
2022/07/10 06:44:11;;;;;;;7.93;1.30;;;16.00;99.90;;;;;;5032025;28;20478;-67
2022/07/10 06:46:37;;;;;;;5.53;1.10;;;16.10;99.90;;;;;;5058138;28;20037;-68
2022/07/10 06:49:03;;;;;;;9.18;1.40;;;16.10;99.90;;;;;;5046198;28;20084;-68
2022/07/10 06:51:29;;;;;;;5.97;1.27;;;16.10;99.90;;;;;;5073440;28;20048;-69
2022/07/10 06:53:56;;;;;;;5.15;1.30;;;16.20;99.90;;;;;;5072215;28;20057;-68
2022/07/10 06:56:22;;;;;;;4.80;1.35;;;16.30;99.90;;;;;;5052094;28;20052;-68
2022/07/10 06:58:48;;;;;;;5.82;1.23;;;16.40;99.90;;;;;;5048428;28;20055;-68
2022/07/10 07:01:14;;;;;;;5.38;1.10;;;16.50;99.90;;;;;;5071578;28;20048;-68
2022/07/10 07:03:39;;;;;;;7.22;1.15;;;16.60;99.90;;;;;;5055217;28;20109;-68
2022/07/10 07:06:05;;;;;;;3.03;1.20;;;16.70;99.90;;;;;;5061165;28;20047;-71
2022/07/10 07:08:31;;;;;;;6.50;1.05;;;16.90;99.90;;;;;;5083512;28;20041;-68
2022/07/10 07:10:57;;;;;;;6.78;1.42;;;16.90;99.90;;;;;;5085563;28;20045;-68
2022/07/10 07:13:23;;;;;;;6.88;1.30;;;16.80;99.90;;;;;;5089430;28;20068;-68
2022/07/10 07:16:05;;;;;;;7.30;1.15;;;16.90;99.90;;;;;;5049335;28;21224;-69
2022/07/10 07:18:36;;;;;;;7.63;1.40;;;16.90;99.90;;;;;;5066078;28;20076;-68
2022/07/10 07:23:46;;;;;;;7.28;1.20;;;16.80;99.90;;;;;;5076199;28;20077;-71
2022/07/10 07:26:12;;;;;;;3.72;1.00;;;16.70;99.90;;;;;;5037092;28;20455;-70
2022/07/10 07:28:38;;;;;;;4.05;1.15;;;16.60;99.90;;;;;;5053200;28;20049;-69
2022/07/10 07:31:04;;;;;;;3.90;1.15;;;16.60;99.90;;;;;;5052094;28;20044;-69
2022/07/10 07:33:30;;;;;;;5.22;1.10;;;16.50;99.90;;;;;;5053026;28;20045;-70
2022/07/10 07:35:56;;;;;;;8.38;1.27;;;16.50;99.90;;;;;;5037710;28;20059;-72
2022/07/10 07:38:22;;;;;;;11.35;1.40;;;16.60;99.90;;;;;;5046653;28;20051;-69
2022/07/10 07:40:47;;;;;;;4.93;1.10;;;16.80;99.90;;;;;;5061432;28;20044;-69
2022/07/10 07:43:13;;;;;;;5.38;1.08;;;17.20;99.90;;;;;;5072109;28;20074;-68
2022/07/10 07:45:39;;;;;;;4.65;1.10;;;17.30;99.90;;;;;;5063803;28;20036;-68
2022/07/10 07:48:05;;;;;;;6.90;1.02;;;17.50;99.90;;;;;;5039610;28;20558;-68
2022/07/10 07:50:33;;;;;;;5.85;1.02;;;17.60;99.90;;;;;;5029764;28;20064;-68
2022/07/10 07:52:59;;;;;;;5.55;1.10;;;17.60;99.90;;;;;;5068197;28;20044;-68
2022/07/10 07:55:25;;;;;;;7.25;1.10;;;17.50;99.90;;;;;;5088526;28;20188;-70
2022/07/10 07:57:55;;;;;;;5.00;1.10;;;17.50;99.90;;;;;;5007660;28;20121;-68
2022/07/10 08:00:23;;;;;;;4.33;0.80;;;17.60;99.90;;;;;;5066559;28;20088;-68
2022/07/10 08:02:50;;;;;;;5.25;1.00;;;17.60;99.90;;;;;;5071853;28;20339;-68
2022/07/10 08:05:16;;;;;;;4.03;0.88;;;17.80;99.90;;;;;;5079615;28;20496;-70
2022/07/10 08:07:47;;;;;;;5.35;1.10;;;18.00;99.90;;;;;;5046007;28;20052;-68
2022/07/10 08:10:15;;;;;;;4.25;1.10;;;18.10;99.90;;;;;;5089240;28;20054;-69
2022/07/10 08:12:42;;;;;;;6.03;1.25;;;17.90;99.90;;;;;;5083929;28;20477;-72
2022/07/10 08:15:10;;;;;;;8.13;0.93;;;17.80;99.90;;;;;;5066896;28;20060;-68
2022/07/10 08:17:36;;;;;;;4.82;0.98;;;17.70;99.90;;;;;;5066054;28;20382;-71
2022/07/10 08:20:03;;;;;;;4.28;0.77;;;17.60;99.90;;;;;;5079848;28;20084;-68
2022/07/10 08:22:29;;;;;;;8.98;1.42;;;17.40;99.90;;;;;;5049678;28;20041;-68
2022/07/10 08:24:56;;;;;;;2.85;1.05;;;17.40;99.90;;;;;;5035105;28;20082;-69
2022/07/10 08:27:22;;;;;;;4.45;1.00;;;17.40;99.90;;;;;;5077753;28;20422;-68
2022/07/10 08:29:48;;;;;;;7.20;1.00;;;17.40;99.90;;;;;;5052787;28;20456;-68
2022/07/10 08:32:14;;;;;;;7.32;1.23;;;17.50;99.90;;;;;;5062012;28;20132;-69
2022/07/10 08:34:39;;;;;;;5.72;1.02;;;17.50;99.90;;;;;;5051718;28;20044;-69
2022/07/10 08:37:05;;;;;;;5.88;1.02;;;17.40;99.90;;;;;;5056602;28;20570;-69
2022/07/10 08:39:31;;;;;;;3.95;0.85;;;17.30;99.90;;;;;;5064113;28;20041;-70
2022/07/10 08:41:58;;;;;;;2.80;0.93;;;17.20;99.90;;;;;;5048821;28;20037;-75
2022/07/10 08:44:24;;;;;;;4.78;1.00;;;17.30;99.90;;;;;;5062377;28;20047;-70
2022/07/10 08:46:49;;;;;;;5.55;1.02;;;17.40;99.90;;;;;;5051727;28;20131;-69
2022/07/10 08:49:17;;;;;;;5.30;0.70;;;17.40;99.90;;;;;;5064392;28;20132;-72
2022/07/10 08:51:59;;;;;;;6.55;1.10;;;17.40;99.90;;;;;;5061758;28;20047;-72
2022/07/10 08:54:28;;;;;;;3.35;0.82;;;17.30;99.90;;;;;;5069704;28;20046;-73
2022/07/10 08:56:59;;;;;;;3.13;0.60;;;17.10;99.90;;;;;;5076921;28;20048;-71
2022/07/10 08:59:25;;;;;;;;;;;17.10;99.90;;;;;;5041478;28;20083;-72
2022/07/10 09:01:53;;;;;;;5.28;0.77;;;16.90;99.90;;;;;;5087766;28;20286;-67
2022/07/10 09:04:22;;;;;;;5.50;0.90;;;16.90;99.90;;;;;;5049230;28;20079;-68
2022/07/10 09:06:48;;;;;;;2.38;0.82;;;17.00;99.90;;;;;;5048310;28;20055;-68
2022/07/10 09:09:14;;;;;;;1.95;0.50;;;17.20;99.90;;;;;;5057737;28;20049;-67
2022/07/10 09:11:42;;;;;;;2.92;0.60;;;17.30;99.90;;;;;;5050509;28;20045;-70
2022/07/10 09:14:14;;;;;;;1.48;0.40;;;17.50;99.90;;;;;;5055891;28;20045;-68
2022/07/10 09:16:45;;;;;;;1.63;0.47;;;17.70;99.90;;;;;;5050992;28;20048;-68
2022/07/10 09:19:22;;;;;;;3.45;0.60;;;17.90;99.90;;;;;;5043158;28;20048;-68
2022/07/10 09:21:54;;;;;;;1.30;0.40;;;18.10;99.90;;;;;;5073438;28;20126;-68
2022/07/10 09:24:20;;;;;;;;;;;18.40;99.90;;;;;;5087855;28;20064;-68
2022/07/10 09:26:58;;;;;;;2.45;0.55;;;18.50;99.90;;;;;;5057245;28;19943;-69
2022/07/10 09:29:24;;;;;;;4.45;0.47;;;18.70;99.90;;;;;;5063554;28;20040;-70
2022/07/10 09:31:51;;;;;;;2.13;0.50;;;18.60;99.90;;;;;;5046116;28;20516;-68
2022/07/10 09:34:17;;;;;;;2.35;0.60;;;18.80;99.90;;;;;;5046714;28;20559;-69
2022/07/10 09:36:44;;;;;;;2.38;0.30;;;18.80;99.90;;;;;;5068547;28;20465;-69
2022/07/10 09:39:09;;;;;;;2.60;0.43;;;18.80;99.90;;;;;;5050547;28;20048;-70
2022/07/10 09:41:35;;;;;;;2.53;0.65;;;18.70;99.90;;;;;;5051471;28;20386;-75
2022/07/10 09:44:08;;;;;;;2.10;0.50;;;18.70;99.90;;;;;;5066386;28;20044;-69
2022/07/10 09:46:38;;;;;;;5.38;0.70;;;18.70;99.90;;;;;;5049409;28;20701;-70
2022/07/10 09:49:07;;;;;;;2.15;0.38;;;18.70;99.90;;;;;;5051670;28;20052;-70
2022/07/10 09:51:35;;;;;;;2.70;0.50;;;18.70;99.90;;;;;;5072061;28;20051;-74
2022/07/10 09:54:03;;;;;;;2.03;0.60;;;18.60;99.90;;;;;;5052508;28;20049;-73
2022/07/10 09:56:39;;;;;;;3.53;0.65;;;18.60;99.90;;;;;;5069907;28;20052;-73
2022/07/10 09:59:09;;;;;;;1.60;0.52;;;18.30;99.90;;;;;;5060486;28;20522;-72
2022/07/10 10:01:37;;;;;;;6.05;1.00;;;18.10;99.90;;;;;;5040500;28;20072;-72
2022/07/10 10:04:04;;;;;;;3.80;0.63;;;18.00;99.90;;;;;;5063182;28;20052;-70
2022/07/10 10:06:31;;;;;;;2.08;0.50;;;18.20;99.90;;;;;;5054522;28;20053;-70
2022/07/10 10:09:06;;;;;;;3.08;0.45;;;18.10;99.90;;;;;;5044798;28;20049;-71
2022/07/10 10:11:35;;;;;;;4.47;0.90;;;18.00;99.90;;;;;;5046532;28;20049;-70
2022/07/10 10:14:02;;;;;;;4.55;0.63;;;18.10;99.90;;;;;;5052268;28;20135;-71
2022/07/10 10:16:29;;;;;;;4.00;0.80;;;18.10;99.90;;;;;;5042547;28;20049;-69
2022/07/10 10:21:40;;;;;;;2.97;0.60;;;18.30;99.90;;;;;;5083628;28;20060;-69
2022/07/10 10:24:06;;;;;;;4.43;0.82;;;18.20;99.90;;;;;;5046613;28;20068;-71
2022/07/10 10:26:32;;;;;;;3.17;0.50;;;18.30;99.90;;;;;;5046861;28;20041;-69
2022/07/10 10:29:01;;;;;;;6.68;0.70;;;18.20;99.90;;;;;;5050246;28;20084;-69
2022/07/10 10:31:28;;;;;;;3.45;0.60;;;18.30;99.90;;;;;;5050102;28;20045;-69
2022/07/10 10:33:57;;;;;;;4.90;0.70;;;18.40;99.90;;;;;;5060794;28;20068;-70
2022/07/10 10:36:43;;;;;;;2.60;0.75;;;18.60;99.90;;;;;;5035480;28;20498;-69
2022/07/10 10:39:18;;;;;;;2.20;0.77;;;18.50;99.90;;;;;;5073972;28;20498;-70
2022/07/10 10:41:55;;;;;;;4.32;0.88;;;18.30;99.90;;;;;;5016296;28;20045;-72
2022/07/10 10:44:21;;;;;;;2.83;0.98;;;17.70;99.90;;;;;;5056297;28;20063;-70
2022/07/10 10:46:50;;;;;;;1.83;0.50;;;17.50;99.90;;;;;;5086578;28;20048;-70
2022/07/10 10:49:19;;;;;;;2.13;0.60;;;17.60;99.90;;;;;;5074400;28;20045;-70
2022/07/10 10:52:01;;;;;;;2.05;0.63;;;17.80;99.90;;;;;;5040530;28;20057;-73
2022/07/10 10:54:29;;;;;;;3.55;0.80;;;18.20;99.90;;;;;;5069322;28;20044;-70
2022/07/10 10:57:14;;;;;;;1.90;0.70;;;18.50;99.90;;;;;;5082439;28;20123;-70
2022/07/10 10:59:51;;;;;;;2.25;0.75;;;18.90;99.90;;;;;;5049239;28;20480;-70
2022/07/10 11:02:27;;;;;;;1.27;0.57;;;19.20;99.90;;;;;;5072895;28;20051;-70
2022/07/10 11:05:17;;;;;;;1.65;0.52;;;19.00;99.90;;;;;;5048091;28;20154;-71
2022/07/10 11:07:55;;;;;;;1.55;0.50;;;18.80;99.90;;;;;;5070326;28;20052;-71
2022/07/10 11:10:45;;;;;;;2.35;0.60;;;18.90;99.90;;;;;;5052320;28;20466;-70
2022/07/10 11:13:13;;;;;;;1.88;0.60;;;18.90;99.90;;;;;;5048479;28;20520;-70
2022/07/10 11:15:43;;;;;;;2.92;0.73;;;19.00;99.90;;;;;;5058267;28;20103;-70
2022/07/10 11:18:11;;;;;;;1.80;0.77;;;19.00;99.90;;;;;;5060522;28;20492;-70
2022/07/10 11:20:44;;;;;;;2.85;0.60;;;19.00;99.90;;;;;;5046798;28;20094;-72
2022/07/10 11:23:17;;;;;;;3.03;0.70;;;18.90;99.90;;;;;;5055564;28;20421;-69
2022/07/10 11:26:01;;;;;;;1.58;0.70;;;19.00;99.90;;;;;;5052859;28;20055;-70
2022/07/10 11:28:35;;;;;;;3.40;0.85;;;18.70;99.90;;;;;;5072812;28;20082;-70
2022/07/10 11:31:01;;;;;;;4.90;0.98;;;18.20;99.90;;;;;;5088854;28;20044;-70
2022/07/10 11:33:27;;;;;;;1.60;0.77;;;17.90;99.90;;;;;;5044442;28;20047;-69
2022/07/10 11:35:53;;;;;;;2.85;0.85;;;17.70;99.90;;;;;;5062421;28;20136;-68
2022/07/10 11:38:24;;;;;;;2.75;1.05;;;17.60;99.90;;;;;;5070383;28;20076;-68
2022/07/10 11:40:53;;;;;;;3.13;1.20;;;17.70;99.90;;;;;;5054990;28;20044;-68
2022/07/10 11:43:23;;;;;;;2.92;1.08;;;17.80;99.90;;;;;;5088094;28;20409;-69
2022/07/10 11:45:50;;;;;;;2.67;1.20;;;17.90;99.90;;;;;;5030849;28;20052;-68
2022/07/10 11:48:23;;;;;;;6.40;1.27;;;17.80;99.90;;;;;;5059818;28;20549;-69
2022/07/10 11:50:49;;;;;;;4.47;1.20;;;17.90;99.90;;;;;;5072504;28;20045;-69
2022/07/10 11:53:22;;;;;;;3.25;1.50;;;17.90;99.90;;;;;;5056827;28;20456;-71
2022/07/10 11:55:49;;;;;;;2.47;1.60;;;17.80;99.90;;;;;;5055311;28;20049;-68
2022/07/10 11:58:19;;;;;;;6.05;1.67;;;17.70;99.90;;;;;;5052691;28;20094;-73
2022/07/10 12:00:59;;;;;;;4.40;1.48;;;17.80;99.90;;;;;;5071194;28;20084;-73
2022/07/10 12:03:25;;;;;;;4.07;1.40;;;17.60;99.90;;;;;;5089421;28;20045;-70
2022/07/10 12:05:51;;;;;;;3.80;1.30;;;17.50;99.90;;;;;;5044965;28;20559;-71
2022/07/10 12:08:17;;;;;;;2.75;1.40;;;17.40;99.90;;;;;;5044999;28;20057;-71
2022/07/10 12:10:43;;;;;;;4.53;1.38;;;17.30;99.90;;;;;;5051523;28;20506;-70
2022/07/10 12:13:12;;;;;;;5.65;1.65;;;17.40;99.90;;;;;;5078346;28;20045;-70
2022/07/10 12:15:42;;;;;;;2.17;1.30;;;17.70;99.90;;;;;;5041902;28;20045;-70
2022/07/10 12:18:18;;;;;;;4.27;1.60;;;17.80;99.90;;;;;;5087004;28;20049;-69
2022/07/10 12:20:47;;;;;;;3.78;1.50;;;18.10;99.90;;;;;;5053983;28;20139;-68
2022/07/10 12:23:16;;;;;;;6.60;1.63;;;18.20;99.90;;;;;;5057843;28;20083;-68
2022/07/10 12:25:48;;;;;;;4.45;1.65;;;18.20;99.90;;;;;;5049738;28;20052;-69
2022/07/10 12:28:14;;;;;;;2.92;1.40;;;18.20;99.90;;;;;;5063304;28;20536;-70
2022/07/10 12:30:44;;;;;;;4.45;1.65;;;18.30;99.90;;;;;;5058709;28;20481;-68
2022/07/10 12:33:20;;;;;;;4.60;1.70;;;18.50;99.90;;;;;;5056746;28;20048;-68
2022/07/10 12:35:56;;;;;;;4.78;1.67;;;18.70;99.90;;;;;;5059217;28;20048;-70
2022/07/10 12:38:25;;;;;;;4.75;1.70;;;18.70;99.90;;;;;;5062735;28;20048;-68
2022/07/10 12:41:08;;;;;;;4.95;1.65;;;18.70;99.90;;;;;;5040862;28;20130;-70
2022/07/10 12:43:34;;;;;;;4.45;1.50;;;18.60;99.90;;;;;;5046159;28;20126;-69
2022/07/10 12:46:21;;;;;;;6.43;1.60;;;18.60;99.90;;;;;;5061633;28;20513;-69
2022/07/10 12:49:08;;;;;;;4.93;1.70;;;18.60;99.90;;;;;;5060483;28;20115;-69
2022/07/10 12:51:49;;;;;;;3.60;1.40;;;18.40;99.90;;;;;;5051038;28;20506;-69
2022/07/10 12:54:37;;;;;;;5.03;1.63;;;18.50;99.90;;;;;;5051525;28;20099;-71
2022/07/10 12:57:04;;;;;;;3.78;1.40;;;18.60;99.90;;;;;;5052007;28;21426;-71
2022/07/10 12:59:33;;;;;;;3.42;1.27;;;19.00;99.90;;;;;;5068833;28;20353;-69